AirNav   Phillips 66 Aviation Fuel
 
 1527 users online  

2LA5 Reed Airfield
Iota, Louisiana, USA

GOING TO IOTA?


FAA INFORMATION EFFECTIVE 20 JULY 2017

Location

FAA Identifier: 2LA5
Lat/Long: 30-20-39.6900N / 092-25-59.3100W
30-20.661500N / 092-25.988500W
30.3443583 / -92.4331417
(estimated)
Elevation: 30 ft. / 9 m (estimated)
Variation: 04E (1985)
From city: 3 miles NE of IOTA, LA
Time zone: UTC -5 (UTC -6 during Standard Time)
Zip code: 70543

Airport Operations

Airport use: Private use. Permission required prior to landing
Activation date: 08/1971
Control tower: no
ARTCC: HOUSTON CENTER
FSS: DE RIDDER FLIGHT SERVICE STATION
Attendance: UNATNDD
Wind indicator: yes
Segmented circle: no

Airport Communications

WX AWOS-3PT at 3R7 (14 nm SW): 121.150 (337-824-0517)

Nearby radio navigation aids

VOR radial/distance  VOR name  Freq  Var
LFTr289/24.6LAFAYETTE VORTAC109.8003E
LCHr064/36.9LAKE CHARLES VORTAC113.4007E

 
NDB name  Hdg/Dist  Freq  Var  ID
DURALDE175/13.026302EECY . -.-. -.--
OAKDALE140/22.237903ELRR .-.. .-. .-.
ABBEVILLE315/23.423002EBNZ -... -. --..

Airport Services

Airframe service: NONE
Powerplant service: NONE

Runway Information

Runway 17/35

Dimensions: 3100 x 130 ft. / 945 x 40 m
Surface: asphalt
RUNWAY 17  RUNWAY 35
Traffic pattern: leftleft
Obstructions: other, marked, 1300 ft. from runway
PLINES
other, marked, 500 ft. from runway
WIRES

Airport Ownership and Management from official FAA records

Ownership: Privately-owned
Owner: REED AIRFIELD, LLC
8351 MCCAIN RD
IOTA, LA 70543
Phone 337-783-7773
Manager: BRADLEY REED
8351 MCCAIN RD
IOTA, LA 70543
Phone 337-783-7773

Airport Operational Statistics

Aircraft based on the field: 4
Single engine airplanes: 3
Helicopters: 1
    

Instrument Procedures

There are no published instrument procedures at 2LA5.

Some nearby airports with instrument procedures:

4R7 - Eunice Airport (7 nm N)
3R7 - Jennings Airport (14 nm SW)
6R1 - Welsh Airport (21 nm W)
KOPL - St Landry Parish Airport-Ahart Field (22 nm NE)
KLFT - Lafayette Regional Airport/Paul Fournet Field (25 nm E)
 
Loc | Ops | Rwys | IFR | FBO | Links
Com | Nav | Svcs | Stats | Notes


 
Area around 2LA5 (Reed Airfield)
 
Road maps at: MapQuest Bing Google
 
Aerial photo
No photo
 
Sectional chart

 
Airport distance calculator
Flying to Reed Airfield? Find the distance to fly.

From to 2LA5

Sunrise and sunset
Times for 24-Jul-2017
 Local
(UTC-5)
 Zulu
(UTC)
Morning civil twilight05:5810:58
Sunrise06:2411:24
Sunset20:0801:08
Evening civil twilight20:3501:35

Current date and time
Zulu (UTC)  24-Jul-2017 21:01:04
Local (UTC-5)  24-Jul-2017 16:01:04
 
METAR
K3R7 
14nm SW 
242035Z AUTO 00000KT 10SM CLR 31/24 A3000 RMK AO2 T03080240
KOPL 
22nm NE 
242035Z AUTO 24003KT 10SM CLR 28/24 A3001 RMK AO2 T02770240
KLFT 
24nm E 
241953Z AUTO 33004KT 10SM CLR 30/23 A3002 RMK AO2 SLP166 T03000233
KACP 
28nm NW 
242035Z AUTO 27004KT 10SM CLR 29/23 A3000 RMK AO2 T02940228
TAF
KLFT 
24nm E 
241922Z 2419/2518 27011KT P6SM VCTS SCT025CB BKN120 FM250000 22004KT P6SM BKN200
NOTAMs
Click for the latest NOTAMs
NOTAMs are issued by the DoD/FAA and will open in a separate window not controlled by AirNav.

 

 
 

Would you like to see your business listed on this page?

 If your business provides an interesting product or service to pilots, flight crews, aircraft, or users of the Reed Airfield, you should consider listing it here.  To start the listing process, click on the button below
 
Add a business
 

Other Pages about Reed Airfield

Update a link
 
Copyright © AirNav, LLC. All rights reserved. Privacy Policy  Contact